Time;durP1;ratioP1;P1;durP2;ratioP2;P2;SDS_P1;SDS_P2;PMS_P1;PMS_P2;Temp;Humidity;BMP_temperature;BMP_pressure;BME280_temperature;BME280_humidity;BME280_pressure;Samples;Min_cycle;Max_cycle;Signal;HPM_P1;HPM_P2
2023/09/30 00:01:44;;;;;;;6.37;3.23;;;;;;;18.69;59.48;102081.03;5037303;27;97096;-58
2023/09/30 00:04:09;;;;;;;5.60;2.33;;;;;;;18.66;59.59;102082.81;5035658;27;97208;-59
2023/09/30 00:06:35;;;;;;;7.80;2.37;;;;;;;18.64;59.62;102087.38;5037889;27;97531;-61
2023/09/30 00:09:00;;;;;;;9.63;2.90;;;;;;;18.61;59.42;102086.38;5036208;27;97294;-59
2023/09/30 00:11:25;;;;;;;5.77;3.03;;;;;;;18.60;59.55;102092.47;5037323;27;97025;-61
2023/09/30 00:13:51;;;;;;;5.20;2.50;;;;;;;18.58;59.53;102097.81;5037602;27;96871;-59
2023/09/30 00:16:19;;;;;;;4.83;2.40;;;;;;;18.57;59.34;102091.47;5036604;27;96821;-59
2023/09/30 00:18:44;;;;;;;4.67;2.37;;;;;;;18.55;59.52;102091.22;5037338;27;98007;-62
2023/09/30 00:21:11;;;;;;;5.00;2.10;;;;;;;18.52;59.49;102091.50;5035683;27;97412;-58
2023/09/30 00:23:36;;;;;;;4.53;2.10;;;;;;;18.49;59.54;102087.69;5033939;27;96992;-61
2023/09/30 00:26:02;;;;;;;5.17;2.47;;;;;;;18.48;59.65;102105.69;5038188;27;96638;-59
2023/09/30 00:28:28;;;;;;;6.60;2.47;;;;;;;18.46;59.69;102119.38;5037140;27;97311;-59
2023/09/30 00:30:54;;;;;;;10.10;2.30;;;;;;;18.43;59.66;102108.47;5035613;27;97449;-62
2023/09/30 00:33:19;;;;;;;7.30;2.80;;;;;;;18.42;59.61;102093.78;5038993;27;97013;-58
2023/09/30 00:35:44;;;;;;;6.07;2.40;;;;;;;18.40;59.41;102096.31;5038997;27;97001;-58
2023/09/30 00:38:10;;;;;;;7.50;3.00;;;;;;;18.38;59.60;102095.31;5038555;27;97817;-62
2023/09/30 00:40:35;;;;;;;4.27;2.30;;;;;;;18.36;59.49;102097.84;5036131;27;97537;-59
2023/09/30 00:43:01;;;;;;;3.90;1.77;;;;;;;18.31;59.61;102107.75;5034799;27;97390;-60
2023/09/30 00:45:27;;;;;;;4.60;2.13;;;;;;;18.30;59.38;102109.03;5037931;27;97163;-58
2023/09/30 00:47:53;;;;;;;4.90;2.50;;;;;;;18.27;59.58;102104.47;5035704;27;97105;-60
2023/09/30 00:50:20;;;;;;;4.27;2.20;;;;;;;18.27;59.63;102112.81;5035133;27;97043;-60
2023/09/30 00:52:48;;;;;;;4.00;2.00;;;;;;;18.25;59.63;102109.03;5034974;27;96848;-58
2023/09/30 00:55:15;;;;;;;5.70;2.50;;;;;;;18.24;59.73;102110.31;5037747;27;96845;-62
2023/09/30 00:57:40;;;;;;;3.97;2.23;;;;;;;18.21;59.63;102108.53;5038669;27;97162;-58
2023/09/30 01:00:07;;;;;;;4.73;2.23;;;;;;;18.20;59.68;102104.22;5052968;27;100188;-59
2023/09/30 01:02:34;;;;;;;8.27;2.60;;;;;;;18.19;59.71;102111.06;5051582;27;96810;-58
2023/09/30 01:05:01;;;;;;;7.63;2.40;;;;;;;18.16;59.64;102103.72;5038451;27;96785;-59
2023/09/30 01:07:26;;;;;;;7.07;2.80;;;;;;;18.13;59.76;102094.34;5037382;27;97139;-59
2023/09/30 01:09:51;;;;;;;4.10;2.30;;;;;;;18.12;59.76;102094.88;5038428;27;98985;-59
2023/09/30 01:12:17;;;;;;;5.73;2.37;;;;;;;18.09;59.69;102101.47;5037490;27;99370;-58
2023/09/30 01:14:42;;;;;;;6.70;2.67;;;;;;;18.07;59.72;102107.53;5036351;27;97697;-59
2023/09/30 01:17:13;;;;;;;5.43;2.40;;;;;;;18.06;59.65;102110.84;5043344;27;100569;-59
2023/09/30 01:19:38;;;;;;;6.13;2.47;;;;;;;18.04;59.75;102110.59;5035753;27;97184;-59
2023/09/30 01:22:04;;;;;;;6.87;2.67;;;;;;;18.02;59.73;102122.22;5035479;27;97562;-59
2023/09/30 01:24:30;;;;;;;5.83;2.90;;;;;;;17.99;59.80;102123.25;5034687;27;97511;-58
2023/09/30 01:26:56;;;;;;;6.70;2.77;;;;;;;17.98;59.61;102121.72;5039950;27;97850;-61
2023/09/30 01:29:22;;;;;;;6.10;2.33;;;;;;;17.94;59.63;102122.00;5036147;27;99735;-59
2023/09/30 01:31:48;;;;;;;3.30;2.17;;;;;;;17.92;59.76;102124.53;5034999;27;97757;-60
2023/09/30 01:34:15;;;;;;;6.73;2.47;;;;;;;17.89;59.65;102125.53;5036983;27;97157;-59
2023/09/30 01:36:41;;;;;;;6.73;2.83;;;;;;;17.87;59.75;102125.28;5034206;27;97371;-58
2023/09/30 01:39:07;;;;;;;7.27;2.67;;;;;;;17.84;59.77;102131.88;5033624;27;97672;-59
2023/09/30 01:41:32;;;;;;;6.80;2.87;;;;;;;17.83;59.81;102127.56;5033790;27;96916;-58
2023/09/30 01:43:58;;;;;;;6.80;2.60;;;;;;;17.82;59.76;102130.88;5034706;27;97042;-60
2023/09/30 01:46:23;;;;;;;5.17;2.50;;;;;;;17.81;59.87;102135.69;5037432;27;97008;-58
2023/09/30 01:48:48;;;;;;;6.00;2.73;;;;;;;17.80;59.77;102141.75;5036528;27;97227;-58
2023/09/30 01:51:14;;;;;;;11.03;2.90;;;;;;;17.77;59.81;102143.53;5035900;27;97137;-59
2023/09/30 01:53:39;;;;;;;6.90;2.60;;;;;;;17.76;59.66;102136.44;5036961;27;97718;-58
2023/09/30 01:56:05;;;;;;;3.43;2.10;;;;;;;17.73;59.62;102120.75;5034640;27;96802;-61
2023/09/30 01:58:30;;;;;;;5.30;2.03;;;;;;;17.66;59.53;102123.28;5035939;27;98774;-58
2023/09/30 02:01:03;;;;;;;5.03;2.30;;;;;;;17.66;59.76;102128.84;5035327;27;98733;-58
2023/09/30 02:03:29;;;;;;;6.83;3.00;;;;;;;17.64;59.86;102131.38;5034479;27;97275;-61
2023/09/30 02:05:54;;;;;;;7.13;2.83;;;;;;;17.63;59.73;102133.41;5035806;27;96874;-59
2023/09/30 02:08:20;;;;;;;11.40;3.17;;;;;;;17.61;59.70;102133.16;5032379;27;102068;-58
2023/09/30 02:10:45;;;;;;;6.37;2.73;;;;;;;17.60;59.81;102136.44;5035722;27;97404;-58
2023/09/30 02:13:11;;;;;;;4.77;2.70;;;;;;;17.58;59.86;102145.28;5035274;27;97203;-60
2023/09/30 02:15:40;;;;;;;5.57;2.60;;;;;;;17.57;59.74;102138.22;5036904;27;97335;-58
2023/09/30 02:18:05;;;;;;;5.20;2.60;;;;;;;17.55;59.88;102128.84;5035205;27;97592;-58
2023/09/30 02:20:31;;;;;;;3.67;2.10;;;;;;;17.53;59.77;102134.91;5033543;27;97125;-58
2023/09/30 02:22:58;;;;;;;5.70;2.40;;;;;;;17.49;59.87;102131.59;5032227;27;97120;-58
2023/09/30 02:25:24;;;;;;;5.63;2.00;;;;;;;17.48;59.73;102138.41;5036390;27;97880;-58
2023/09/30 02:27:50;;;;;;;5.73;2.20;;;;;;;17.44;59.73;102134.38;5035649;27;97250;-57
2023/09/30 02:30:16;;;;;;;4.90;2.40;;;;;;;17.40;59.68;102142.97;5036241;27;96873;-58
2023/09/30 02:32:42;;;;;;;4.90;2.73;;;;;;;17.37;59.77;102141.19;5032973;27;97045;-57
2023/09/30 02:35:10;;;;;;;3.27;2.07;;;;;;;17.34;59.84;102141.44;5035976;27;97174;-60
2023/09/30 02:37:36;;;;;;;4.63;2.20;;;;;;;17.30;59.62;102146.50;5032622;27;96605;-61
2023/09/30 02:40:09;;;;;;;4.53;2.20;;;;;;;17.28;59.68;102152.53;5033421;27;97029;-60
2023/09/30 02:42:38;;;;;;;5.03;2.37;;;;;;;17.25;59.94;102159.88;5035252;27;96830;-57
2023/09/30 02:45:05;;;;;;;3.37;2.23;;;;;;;17.27;59.91;102162.16;5033762;27;97783;-58
2023/09/30 02:47:31;;;;;;;3.80;2.30;;;;;;;17.28;59.86;102160.88;5032540;27;97193;-59
2023/09/30 02:49:57;;;;;;;8.17;2.43;;;;;;;17.27;59.75;102169.75;5031069;27;96802;-58
2023/09/30 02:52:27;;;;;;;4.33;2.07;;;;;;;17.25;59.77;102165.44;5031870;27;97353;-59
2023/09/30 02:54:52;;;;;;;6.63;2.30;;;;;;;17.25;59.83;102167.47;5032986;27;97283;-57
2023/09/30 02:57:18;;;;;;;5.30;2.57;;;;;;;17.25;59.89;102159.13;5033471;27;97048;-58
2023/09/30 02:59:44;;;;;;;4.30;2.40;;;;;;;17.23;59.82;102170.00;5031616;27;97035;-61
2023/09/30 03:02:11;;;;;;;4.20;2.27;;;;;;;17.21;59.83;102156.56;5035836;27;97346;-58
2023/09/30 03:04:36;;;;;;;3.57;2.03;;;;;;;17.19;59.73;102169.47;5031080;27;97871;-60
2023/09/30 03:07:02;;;;;;;3.90;1.90;;;;;;;17.17;60.03;102172.75;5034512;27;97035;-60
2023/09/30 03:09:27;;;;;;;7.30;2.37;;;;;;;17.17;60.10;102177.53;5036081;27;96821;-58
2023/09/30 03:11:55;;;;;;;9.43;2.47;;;;;;;17.17;59.90;102166.44;5038498;27;96782;-58
2023/09/30 03:14:21;;;;;;;6.73;2.43;;;;;;;17.17;59.70;102174.75;5035927;27;97306;-57
2023/09/30 03:16:47;;;;;;;5.37;2.27;;;;;;;17.14;59.51;102171.00;5041817;27;97354;-57
2023/09/30 03:19:12;;;;;;;5.00;2.20;;;;;;;17.11;59.82;102171.22;5038123;27;96979;-57
2023/09/30 03:21:38;;;;;;;8.37;2.80;;;;;;;17.08;59.73;102164.63;5038377;27;97119;-57
2023/09/30 03:24:04;;;;;;;7.37;2.50;;;;;;;17.06;59.91;102167.16;5034988;27;97320;-57
2023/09/30 03:26:30;;;;;;;5.87;2.10;;;;;;;17.04;59.75;102168.91;5038027;27;98950;-57
2023/09/30 03:28:56;;;;;;;4.80;1.70;;;;;;;17.01;59.93;102167.16;5038495;27;96770;-57
2023/09/30 03:31:22;;;;;;;5.37;2.20;;;;;;;17.00;60.00;102169.16;5038265;27;96891;-57
2023/09/30 03:33:50;;;;;;;3.50;2.00;;;;;;;17.00;59.98;102171.94;5038387;27;96973;-58
2023/09/30 03:36:16;;;;;;;8.93;2.60;;;;;;;16.98;60.02;102170.91;5036261;27;97204;-57
2023/09/30 03:38:42;;;;;;;4.60;1.70;;;;;;;16.96;60.02;102174.22;5036117;27;97191;-57
2023/09/30 03:41:08;;;;;;;5.67;2.73;;;;;;;16.95;60.13;102167.13;5037525;27;97081;-57
2023/09/30 03:43:36;;;;;;;4.10;2.63;;;;;;;16.94;60.04;102167.63;5037426;27;97359;-57
2023/09/30 03:46:02;;;;;;;6.70;2.60;;;;;;;16.92;60.13;102170.91;5035630;27;97161;-57
2023/09/30 03:48:27;;;;;;;5.97;2.53;;;;;;;16.90;60.20;102167.09;5037890;27;97228;-57
2023/09/30 03:50:53;;;;;;;4.60;2.30;;;;;;;16.88;60.13;102164.06;5035257;27;96743;-57
2023/09/30 03:53:19;;;;;;;2.37;2.17;;;;;;;16.86;60.27;102158.25;5032472;27;97586;-57
2023/09/30 03:55:45;;;;;;;6.10;2.70;;;;;;;16.84;60.08;102155.22;5041250;27;97780;-57
2023/09/30 03:58:12;;;;;;;4.70;2.50;;;;;;;16.80;60.10;102149.09;5036447;27;96714;-57
2023/09/30 04:00:39;;;;;;;5.40;2.43;;;;;;;16.77;59.95;102155.69;5038203;27;97108;-57
2023/09/30 04:03:05;;;;;;;2.40;1.77;;;;;;;16.70;60.00;102145.03;5038181;27;99068;-57
2023/09/30 04:05:34;;;;;;;6.10;2.90;;;;;;;16.66;60.24;102141.72;5037488;27;97053;-57
2023/09/30 04:07:59;;;;;;;6.17;2.30;;;;;;;16.63;60.24;102143.47;5036019;27;97406;-57
2023/09/30 04:10:25;;;;;;;3.07;2.00;;;;;;;16.61;60.19;102148.00;5035995;27;97049;-57
2023/09/30 04:12:50;;;;;;;4.53;2.20;;;;;;;16.58;60.31;102151.81;5039513;27;98069;-57
2023/09/30 04:15:16;;;;;;;4.40;2.23;;;;;;;16.54;60.19;102151.25;5038865;27;97053;-57
2023/09/30 04:17:41;;;;;;;4.10;2.20;;;;;;;16.52;60.17;102162.09;5037712;27;96676;-57
2023/09/30 04:20:10;;;;;;;4.80;2.10;;;;;;;16.47;60.23;102150.44;5037010;27;96908;-57
2023/09/30 04:22:37;;;;;;;4.00;2.10;;;;;;;16.45;60.36;102161.28;5039330;27;100520;-57
2023/09/30 04:25:08;;;;;;;4.07;2.37;;;;;;;16.41;60.17;102162.78;5039260;27;97092;-57
2023/09/30 04:27:33;;;;;;;4.97;2.30;;;;;;;16.39;60.20;102165.28;5037380;27;96888;-57
2023/09/30 04:29:59;;;;;;;6.63;2.30;;;;;;;16.36;60.29;102153.16;5035165;27;96878;-57
2023/09/30 04:32:27;;;;;;;7.40;2.83;;;;;;;16.34;60.31;102158.44;5036432;27;97454;-57
2023/09/30 04:34:52;;;;;;;3.20;1.60;;;;;;;16.32;60.27;102171.31;5037424;27;97158;-57
2023/09/30 04:37:18;;;;;;;3.13;1.97;;;;;;;16.30;60.22;102169.03;5038231;27;97381;-57
2023/09/30 04:39:44;;;;;;;3.03;1.57;;;;;;;16.28;60.36;102177.09;5036723;27;96883;-57
2023/09/30 04:42:11;;;;;;;7.70;1.80;;;;;;;16.27;60.33;102183.16;5038421;27;96861;-57
2023/09/30 04:44:38;;;;;;;3.10;1.73;;;;;;;16.24;60.32;102173.81;5037598;27;97812;-57
2023/09/30 04:47:03;;;;;;;5.07;2.23;;;;;;;16.23;60.51;102183.38;5035498;27;97154;-56
2023/09/30 04:49:29;;;;;;;5.10;2.40;;;;;;;16.21;60.48;102174.00;5034587;27;97505;-57
2023/09/30 04:51:55;;;;;;;5.17;2.30;;;;;;;16.18;60.39;102172.25;5034992;27;97450;-57
2023/09/30 04:54:21;;;;;;;2.50;2.13;;;;;;;16.17;60.61;102170.69;5033654;27;100505;-57
2023/09/30 04:56:47;;;;;;;4.40;2.27;;;;;;;16.16;60.39;102174.75;5035071;27;97074;-56
2023/09/30 04:59:12;;;;;;;4.30;1.90;;;;;;;16.13;60.46;102179.28;5034143;27;97040;-57
2023/09/30 05:01:37;;;;;;;3.23;1.63;;;;;;;16.11;60.57;102179.00;5038378;27;96755;-57
2023/09/30 05:04:03;;;;;;;6.23;2.67;;;;;;;16.12;60.64;102186.06;5035247;27;105829;-57
2023/09/30 05:06:28;;;;;;;6.07;2.67;;;;;;;16.11;60.52;102173.47;5034444;27;97186;-57
2023/09/30 05:08:55;;;;;;;5.30;2.53;;;;;;;16.10;60.64;102177.47;5035765;27;97682;-57
2023/09/30 05:11:20;;;;;;;5.80;1.97;;;;;;;16.10;60.59;102171.16;5036403;27;97980;-57
2023/09/30 05:13:46;;;;;;;3.33;2.13;;;;;;;16.09;60.72;102172.41;5037297;27;97191;-57
2023/09/30 05:16:13;;;;;;;4.73;2.03;;;;;;;16.08;60.77;102177.22;5032596;27;97080;-57
2023/09/30 05:18:38;;;;;;;6.53;1.83;;;;;;;16.09;60.76;102184.28;5036348;27;97061;-57
2023/09/30 05:21:04;;;;;;;5.20;2.67;;;;;;;16.09;60.74;102181.53;5034993;27;97047;-57
2023/09/30 05:23:29;;;;;;;3.40;2.03;;;;;;;16.09;60.93;102197.41;5038220;27;97357;-57
2023/09/30 05:25:54;;;;;;;3.80;2.10;;;;;;;16.07;60.92;102189.59;5038171;27;103942;-57
2023/09/30 05:28:20;;;;;;;3.53;2.43;;;;;;;16.09;60.93;102191.84;5033429;27;97886;-57
2023/09/30 05:30:46;;;;;;;5.80;2.30;;;;;;;16.10;60.89;102199.69;5036773;27;97106;-57
2023/09/30 05:33:14;;;;;;;2.50;2.03;;;;;;;16.10;60.99;102198.91;5034358;27;97204;-57
2023/09/30 05:35:40;;;;;;;6.97;2.40;;;;;;;16.11;60.97;102190.13;5041850;27;97219;-57
2023/09/30 05:38:07;;;;;;;7.30;2.20;;;;;;;16.10;61.11;102191.34;5036188;27;97882;-57
2023/09/30 05:40:33;;;;;;;6.33;2.87;;;;;;;16.11;61.02;102198.44;5033794;27;97926;-56
2023/09/30 05:42:59;;;;;;;7.23;2.43;;;;;;;16.11;61.14;102200.44;5036793;27;97152;-57
2023/09/30 05:45:30;;;;;;;4.70;2.10;;;;;;;16.11;61.16;102194.91;5038839;27;96757;-57
2023/09/30 05:47:57;;;;;;;5.03;2.13;;;;;;;16.11;61.25;102201.22;5036374;27;98595;-57
2023/09/30 05:50:26;;;;;;;5.73;2.17;;;;;;;16.15;61.38;102204.53;5033418;27;97264;-57
2023/09/30 05:52:53;;;;;;;5.30;2.50;;;;;;;16.17;61.39;102198.47;5035651;27;97206;-57
2023/09/30 05:55:21;;;;;;;4.67;2.40;;;;;;;16.20;61.35;102203.06;5035664;27;97120;-57
2023/09/30 05:57:49;;;;;;;7.37;2.10;;;;;;;16.22;61.44;102209.63;5035876;27;96818;-57
2023/09/30 06:00:20;;;;;;;6.27;2.10;;;;;;;16.26;61.49;102207.41;5035873;27;97261;-57
2023/09/30 06:02:47;;;;;;;6.70;2.27;;;;;;;16.29;61.53;102214.72;5034778;27;97328;-57
2023/09/30 06:05:12;;;;;;;13.33;2.73;;;;;;;16.32;61.71;102216.53;5034060;27;97720;-57
2023/09/30 06:07:37;;;;;;;4.27;2.00;;;;;;;16.35;61.58;102221.09;5035704;27;97133;-57
2023/09/30 06:10:03;;;;;;;3.13;1.93;;;;;;;16.37;61.64;102231.72;5035909;27;96808;-57
2023/09/30 06:12:29;;;;;;;6.20;2.23;;;;;;;16.39;61.58;102237.53;5031430;27;96788;-57
2023/09/30 06:14:54;;;;;;;6.77;2.30;;;;;;;16.43;61.56;102240.84;5034482;27;97369;-57
2023/09/30 06:17:22;;;;;;;5.30;2.30;;;;;;;16.44;61.66;102242.38;5034963;27;97510;-57
2023/09/30 06:19:49;;;;;;;5.50;2.63;;;;;;;16.45;61.74;102246.66;5035289;27;98811;-57
2023/09/30 06:22:14;;;;;;;4.30;1.97;;;;;;;16.47;61.85;102255.25;5035999;27;97269;-56
2023/09/30 06:24:39;;;;;;;6.67;2.30;;;;;;;16.48;61.83;102254.78;5035668;27;97040;-57
2023/09/30 06:27:05;;;;;;;5.67;2.20;;;;;;;16.50;61.81;102254.31;5035059;27;98284;-57
2023/09/30 06:29:31;;;;;;;6.50;2.50;;;;;;;16.51;61.96;102255.84;5034098;27;97175;-57
2023/09/30 06:31:56;;;;;;;2.20;1.80;;;;;;;16.52;61.88;102257.34;5034216;27;99330;-57
2023/09/30 06:34:21;;;;;;;7.00;1.90;;;;;;;16.53;61.84;102241.44;5033051;27;97105;-57
2023/09/30 06:36:47;;;;;;;6.70;1.90;;;;;;;16.55;61.90;102238.94;5036004;27;97484;-57
2023/09/30 06:39:12;;;;;;;4.40;2.07;;;;;;;16.59;61.89;102250.56;5035434;27;97423;-57
2023/09/30 06:41:39;;;;;;;6.40;2.17;;;;;;;16.61;61.95;102254.38;5033211;27;96931;-57
2023/09/30 06:44:04;;;;;;;5.17;2.40;;;;;;;16.64;61.97;102250.63;5035459;27;96755;-57
2023/09/30 06:46:29;;;;;;;4.50;2.03;;;;;;;16.67;62.05;102246.06;5038816;27;97243;-57
2023/09/30 06:48:55;;;;;;;3.33;1.80;;;;;;;16.69;62.00;102247.09;5033845;27;109319;-57
2023/09/30 06:51:20;;;;;;;5.77;2.20;;;;;;;16.73;62.06;102241.31;5034517;27;107053;-57
2023/09/30 06:53:45;;;;;;;3.37;1.40;;;;;;;16.76;62.02;102254.22;5035274;27;97692;-57
2023/09/30 06:56:12;;;;;;;6.40;2.17;;;;;;;16.81;62.08;102261.84;5027485;27;97225;-57
2023/09/30 06:58:38;;;;;;;3.77;1.97;;;;;;;16.86;62.09;102255.56;5034412;27;97470;-57
2023/09/30 07:01:03;;;;;;;4.27;1.83;;;;;;;16.90;62.06;102261.63;5034228;27;97149;-57
2023/09/30 07:03:28;;;;;;;5.13;2.20;;;;;;;16.95;61.93;102264.44;5033512;27;96977;-57
2023/09/30 07:05:56;;;;;;;5.67;2.40;;;;;;;17.00;62.14;102268.50;5035427;27;97284;-57
2023/09/30 07:08:21;;;;;;;5.90;2.00;;;;;;;17.05;62.03;102262.22;5037003;27;97337;-57
2023/09/30 07:10:49;;;;;;;4.50;2.13;;;;;;;17.09;62.04;102273.88;5036512;27;97191;-57
2023/09/30 07:13:15;;;;;;;4.33;1.93;;;;;;;17.15;62.05;102280.19;5036451;27;97370;-56
2023/09/30 07:15:41;;;;;;;4.90;2.03;;;;;;;17.19;62.07;102277.94;5034911;27;97243;-57
2023/09/30 07:18:06;;;;;;;5.67;2.20;;;;;;;17.25;62.16;102284.31;5033531;27;109025;-57
2023/09/30 07:20:32;;;;;;;9.83;2.57;;;;;;;17.31;62.03;102287.88;5034308;27;98557;-57
2023/09/30 07:23:00;;;;;;;8.87;2.60;;;;;;;17.39;62.00;102296.50;5035714;27;101335;-57
2023/09/30 07:25:25;;;;;;;4.40;1.80;;;;;;;17.44;62.14;102304.88;5035180;27;97687;-57
2023/09/30 07:27:50;;;;;;;4.63;1.70;;;;;;;17.50;61.96;102297.31;5033178;27;97151;-57
2023/09/30 07:30:17;;;;;;;5.83;2.20;;;;;;;17.56;62.17;102298.09;5033080;27;97114;-57
2023/09/30 07:32:42;;;;;;;5.67;2.20;;;;;;;17.62;62.10;102307.25;5036744;27;97716;-57
2023/09/30 07:35:08;;;;;;;1.77;1.40;;;;;;;17.71;62.13;102301.44;5035046;27;97026;-57
2023/09/30 07:37:33;;;;;;;5.43;2.03;;;;;;;17.78;62.08;102309.31;5035427;27;97417;-56
2023/09/30 07:39:59;;;;;;;4.40;1.93;;;;;;;17.88;61.92;102313.41;5035120;27;97740;-57
2023/09/30 07:42:25;;;;;;;4.40;2.13;;;;;;;18.01;61.81;102310.13;5034477;27;97482;-57
2023/09/30 07:44:50;;;;;;;4.87;1.87;;;;;;;18.09;61.97;102310.38;5035396;27;97421;-57
2023/09/30 07:47:15;;;;;;;8.13;2.40;;;;;;;18.14;61.85;102323.56;5035226;27;98884;-57
2023/09/30 07:49:41;;;;;;;8.83;2.37;;;;;;;18.16;61.68;102316.22;5035702;27;100227;-57
2023/09/30 07:52:06;;;;;;;3.43;1.90;;;;;;;18.20;61.59;102313.94;5034857;27;97706;-56
2023/09/30 07:54:32;;;;;;;4.93;2.00;;;;;;;18.25;61.61;102320.78;5035187;27;101037;-57
2023/09/30 07:56:57;;;;;;;9.30;2.03;;;;;;;18.30;61.71;102320.03;5039697;27;97446;-57
2023/09/30 07:59:23;;;;;;;4.13;1.90;;;;;;;18.37;61.63;102322.31;5038273;27;97400;-57
2023/09/30 08:01:48;;;;;;;4.53;2.10;;;;;;;18.44;61.58;102330.16;5036832;27;101648;-57
2023/09/30 08:04:13;;;;;;;5.90;2.03;;;;;;;18.50;61.84;102322.59;5036568;27;96917;-57
2023/09/30 08:06:39;;;;;;;6.83;1.93;;;;;;;18.57;61.78;102325.63;5038095;27;97372;-57
2023/09/30 08:09:09;;;;;;;5.30;1.80;;;;;;;18.62;61.73;102324.13;5037122;27;98044;-57
2023/09/30 08:11:36;;;;;;;3.47;1.90;;;;;;;18.68;61.61;102325.63;5036109;27;97209;-57
2023/09/30 08:14:06;;;;;;;5.23;1.97;;;;;;;18.82;61.46;102334.22;5027383;27;98480;-58
2023/09/30 08:16:32;;;;;;;4.50;1.70;;;;;;;18.93;61.46;102329.41;5033364;27;97236;-57
2023/09/30 08:18:58;;;;;;;8.83;2.50;;;;;;;19.04;61.49;102334.19;5025244;27;98277;-56
2023/09/30 08:21:23;;;;;;;10.27;2.30;;;;;;;19.17;61.18;102331.63;5034044;27;97523;-57
2023/09/30 08:23:48;;;;;;;5.47;1.97;;;;;;;19.31;61.13;102331.31;5039011;27;101904;-59
2023/09/30 08:26:13;;;;;;;10.20;2.00;;;;;;;19.43;60.91;102349.59;5037957;27;96929;-59
2023/09/30 08:28:39;;;;;;;7.90;1.90;;;;;;;19.55;61.00;102341.16;5038423;27;109705;-59
2023/09/30 08:31:05;;;;;;;3.77;1.43;;;;;;;19.59;60.54;102336.06;5038589;27;98242;-59
2023/09/30 08:33:31;;;;;;;5.17;2.03;;;;;;;19.62;60.49;102338.56;5037506;27;97949;-59
2023/09/30 08:36:01;;;;;;;7.27;2.20;;;;;;;19.68;60.33;102344.88;5038041;27;98101;-58
2023/09/30 08:38:26;;;;;;;8.10;2.40;;;;;;;19.74;60.51;102350.47;5038016;27;97340;-58
2023/09/30 08:40:53;;;;;;;9.80;1.93;;;;;;;19.78;60.32;102350.94;5037756;27;96822;-59
2023/09/30 08:43:27;;;;;;;5.13;2.00;;;;;;;19.82;60.22;102346.59;5036876;27;97311;-60
2023/09/30 08:45:53;;;;;;;5.43;1.93;;;;;;;19.85;60.28;102348.38;5038574;27;97410;-59
2023/09/30 08:48:20;;;;;;;4.77;1.60;;;;;;;19.89;59.92;102342.50;5037179;27;97430;-59
2023/09/30 08:50:49;;;;;;;5.23;2.17;;;;;;;19.92;60.09;102341.50;5036771;27;97383;-58
2023/09/30 08:53:16;;;;;;;2.67;1.40;;;;;;;19.95;59.89;102348.81;5037023;27;97732;-59
2023/09/30 08:55:44;;;;;;;8.87;1.87;;;;;;;20.01;59.72;102350.31;5035993;27;97829;-59
2023/09/30 08:58:12;;;;;;;5.30;1.90;;;;;;;19.99;59.71;102360.47;5037320;27;97591;-59
2023/09/30 09:00:38;;;;;;;4.20;1.63;;;;;;;19.94;59.58;102359.22;5037311;27;98064;-59
2023/09/30 09:03:05;;;;;;;3.07;1.80;;;;;;;19.93;59.54;102359.75;5038015;27;97255;-58
2023/09/30 09:05:30;;;;;;;4.53;2.17;;;;;;;19.97;59.50;102361.00;5036156;27;98412;-58
2023/09/30 09:07:56;;;;;;;4.00;1.70;;;;;;;20.00;59.50;102359.97;5036573;27;97633;-59
2023/09/30 09:10:21;;;;;;;5.43;1.80;;;;;;;20.07;59.38;102361.47;5037313;27;97509;-59
2023/09/30 09:12:56;;;;;;;8.63;1.83;;;;;;;20.13;58.87;102374.13;5038504;27;97102;-59
2023/09/30 09:15:26;;;;;;;4.23;1.30;;;;;;;20.17;58.77;102365.44;5037388;27;97338;-57
2023/09/30 09:17:52;;;;;;;8.90;2.03;;;;;;;20.19;58.83;102365.69;5038216;27;97358;-60
2023/09/30 09:20:20;;;;;;;3.90;1.70;;;;;;;20.23;58.91;102371.78;5037455;27;97010;-58
2023/09/30 09:22:52;;;;;;;3.77;1.70;;;;;;;20.25;58.59;102377.63;5037889;27;96700;-59
2023/09/30 09:25:18;;;;;;;4.77;1.57;;;;;;;20.25;58.74;102372.03;5038279;27;96975;-59
2023/09/30 09:27:44;;;;;;;3.70;1.93;;;;;;;20.33;58.67;102377.84;5032452;27;97647;-58
2023/09/30 09:30:15;;;;;;;3.47;1.80;;;;;;;20.37;58.42;102367.88;5035233;27;97162;-58
2023/09/30 09:33:01;;;;;;;3.33;1.93;;;;;;;20.42;57.91;102364.28;5036428;27;97299;-58
2023/09/30 09:35:32;;;;;;;6.53;1.63;;;;;;;20.44;58.25;102361.75;5034004;27;96838;-59
2023/09/30 09:38:04;;;;;;;3.90;1.57;;;;;;;20.48;57.91;102367.81;5036806;27;97180;-58
2023/09/30 09:40:33;;;;;;;4.40;1.83;;;;;;;20.53;57.97;102366.25;5034104;27;97059;-58
2023/09/30 09:43:04;;;;;;;6.43;1.83;;;;;;;20.60;57.98;102369.22;5035124;27;97463;-60
2023/09/30 09:45:32;;;;;;;5.87;1.73;;;;;;;20.68;57.76;102369.41;5034912;27;98134;-59
2023/09/30 09:47:58;;;;;;;6.30;1.97;;;;;;;20.69;57.66;102352.09;5037399;27;97048;-58
2023/09/30 09:50:23;;;;;;;3.00;1.47;;;;;;;20.76;57.74;102361.97;5036940;27;96788;-58
2023/09/30 09:52:51;;;;;;;5.07;1.83;;;;;;;20.81;57.44;102358.38;5039167;27;97726;-60
2023/09/30 09:55:18;;;;;;;4.20;1.80;;;;;;;20.85;57.59;102356.81;5033155;27;97333;-58
2023/09/30 09:57:45;;;;;;;3.57;1.70;;;;;;;20.89;57.21;102357.25;5013181;27;97606;-60
2023/09/30 10:00:18;;;;;;;3.07;1.57;;;;;;;21.00;57.03;102370.38;5033824;27;97978;-59
2023/09/30 10:02:45;;;;;;;4.80;1.50;;;;;;;21.11;57.15;102369.53;5036068;27;96977;-58
2023/09/30 10:05:12;;;;;;;5.23;1.60;;;;;;;21.19;56.93;102365.63;5036333;27;97298;-60
2023/09/30 10:07:43;;;;;;;6.67;1.80;;;;;;;21.25;56.54;102355.13;5036801;27;97081;-59
2023/09/30 10:10:16;;;;;;;5.37;1.53;;;;;;;21.32;56.62;102362.94;5034248;27;97341;-58
2023/09/30 10:12:42;;;;;;;5.50;1.73;;;;;;;21.36;56.56;102355.00;5034572;27;96875;-59
2023/09/30 10:15:26;;;;;;;5.83;1.83;;;;;;;21.42;55.68;102358.50;5036534;27;97860;-58
2023/09/30 10:18:03;;;;;;;13.00;1.97;;;;;;;21.47;55.55;102357.66;5033439;27;96729;-59
2023/09/30 10:20:29;;;;;;;2.77;1.33;;;;;;;21.52;56.13;102358.88;5033193;27;97415;-60
2023/09/30 10:23:24;;;;;;;2.50;1.40;;;;;;;21.55;55.90;102366.25;5039405;27;97370;-60
2023/09/30 10:25:55;;;;;;;3.50;1.47;;;;;;;21.61;56.29;102376.09;5033827;27;98113;-60
2023/09/30 10:28:34;;;;;;;2.90;1.50;;;;;;;21.70;55.83;102369.34;5038036;27;97251;-59
2023/09/30 10:31:09;;;;;;;2.00;1.50;;;;;;;21.81;55.40;102374.06;5032333;27;97359;-59
2023/09/30 10:33:34;;;;;;;3.63;1.60;;;;;;;21.85;55.66;102368.94;5034481;27;97380;-60
2023/09/30 10:36:00;;;;;;;2.67;1.37;;;;;;;21.89;55.56;102375.75;5034958;27;97120;-60
2023/09/30 10:38:29;;;;;;;2.67;1.43;;;;;;;21.94;54.85;102374.16;5033976;27;97592;-60
2023/09/30 10:40:55;;;;;;;3.53;1.53;;;;;;;21.99;54.85;102384.53;5036820;27;97147;-59
2023/09/30 10:43:31;;;;;;;3.30;1.33;;;;;;;22.02;54.03;102391.88;5037695;27;97280;-58
2023/09/30 10:45:56;;;;;;;2.50;1.40;;;;;;;22.05;54.67;102394.38;5034463;27;97596;-59
2023/09/30 10:48:25;;;;;;;1.80;1.33;;;;;;;22.07;54.39;102383.41;5035853;27;96888;-60
2023/09/30 10:50:55;;;;;;;5.03;1.77;;;;;;;22.15;54.36;102387.09;5036482;27;97428;-59
2023/09/30 10:53:21;;;;;;;5.83;1.63;;;;;;;22.21;54.37;102384.97;5001163;27;97610;-60
2023/09/30 10:56:05;;;;;;;6.36;0.85;;;;;;;22.25;53.34;102374.22;2214507;27;10120678;-59
2023/09/30 10:58:43;;;;;;;4.03;1.60;;;;;;;22.33;53.56;102372.31;3247397;27;10098245;-59
2023/09/30 11:01:10;;;;;;;3.27;1.70;;;;;;;22.45;54.13;102375.69;3738134;27;10097951;-59
2023/09/30 11:03:36;;;;;;;3.83;1.37;;;;;;;22.51;53.76;102373.56;4975022;28;97698;-60
2023/09/30 11:06:01;;;;;;;3.70;1.40;;;;;;;22.62;53.46;102378.25;4975951;28;99268;-60
2023/09/30 11:08:32;;;;;;;2.70;1.13;;;;;;;22.70;53.15;102373.50;4973589;28;97737;-59
2023/09/30 11:10:57;;;;;;;1.73;1.10;;;;;;;22.77;53.23;102392.53;4974786;28;97022;-59
2023/09/30 11:13:23;;;;;;;4.63;1.43;;;;;;;22.84;52.90;102377.88;4973561;28;97027;-60
2023/09/30 11:15:59;;;;;;;3.07;1.60;;;;;;;22.96;52.06;102376.38;4971144;28;97131;-60
2023/09/30 11:18:24;;;;;;;5.30;1.50;;;;;;;22.97;52.64;102375.84;4974089;28;97986;-60
2023/09/30 11:21:02;;;;;;;3.47;1.33;;;;;;;22.90;52.52;102376.47;4971138;28;98488;-60
2023/09/30 11:23:28;;;;;;;5.87;1.70;;;;;;;22.83;52.66;102376.34;4971492;28;97713;-60